Time;durP1;ratioP1;P1;durP2;ratioP2;P2;SDS_P1;SDS_P2;PMS_P1;PMS_P2;Temp;Humidity;BMP_temperature;BMP_pressure;BME280_temperature;BME280_humidity;BME280_pressure;Samples;Min_cycle;Max_cycle;Signal;HPM_P1;HPM_P2
2022/01/25 00:25:06;;;;;;;;;;;;;;;;;;5066803;28;20008;-57
2022/01/25 00:27:48;;;;;;;;;;;;;;;;;;5071944;28;19929;-57
2022/01/25 00:30:31;;;;;;;;;;;;;;;;;;5071138;28;19928;-57
2022/01/25 00:32:58;;;;;;;;;;;;;;;;;;5083742;28;19934;-57
2022/01/25 00:35:24;;;;;;;;;;;;;;;;;;5091364;28;19924;-57
2022/01/25 00:37:50;;;;;;;;;;;;;;;;;;5091746;28;20332;-58
2022/01/25 00:40:16;;;;;;;;;;;;;;;;;;5091766;28;19970;-57
2022/01/25 00:42:42;;;;;;;;;;;;;;;;;;5090915;28;20389;-58
2022/01/25 00:45:10;;;;;;;;;;;;;;;;;;5091799;28;19924;-58
2022/01/25 00:47:40;;;;;;;;;;;;;;;;;;5092084;28;19924;-57
2022/01/25 00:50:13;;;;;;;;;;;;;;;;;;5090685;28;20009;-57
2022/01/25 00:55:25;;;;;;;;;;;;;;;;;;5091763;28;19930;-58
2022/01/25 00:57:51;;;;;;;;;;;;;;;;;;5090532;28;19955;-58
2022/01/25 01:00:17;;;;;;;;;;;;;;;;;;5085366;28;19929;-58
2022/01/25 01:02:43;;;;;;;;;;;;;;;;;;5071353;28;19932;-58
2022/01/25 01:05:09;;;;;;;;;;;;;;;;;;5070549;28;20449;-58
2022/01/25 01:07:35;;;;;;;;;;;;;;;;;;5071556;28;19928;-58
2022/01/25 01:10:02;;;;;;;;;;;;;;;;;;5071103;28;19928;-57
2022/01/25 01:12:56;;;;;;;;;;;;;;;;;;5070555;28;20317;-58
2022/01/25 01:15:26;;;;;;;;;;;;;;;;;;5071009;28;19924;-57
2022/01/25 01:31:38;;;;;;;;;;;;;;;;;;5069360;28;19925;-57
2022/01/25 01:34:37;;;;;;;;;;;;;;;;;;5092106;28;20268;-57
2022/01/25 01:40:06;;;;;;;;;;;;;;;;;;5089906;28;19935;-57
2022/01/25 01:45:28;;;;;;;;;;;;;;;;;;5077764;28;19932;-57
2022/01/25 01:48:01;;;;;;;;;;;;;;;;;;5091434;28;19924;-57
2022/01/25 01:50:30;;;;;;;;;;;;;;;;;;5090707;28;19959;-57
2022/01/25 01:52:56;;;;;;;;;;;;;;;;;;5091457;28;19935;-58
2022/01/25 01:55:22;;;;;;;;;;;;;;;;;;5094921;28;20334;-59
2022/01/25 01:57:49;;;;;;;;;;;;;;;;;;5094781;28;19928;-58
2022/01/25 02:00:15;;;;;;;;;;;;;;;;;;5087808;28;19924;-58
2022/01/25 02:02:41;;;;;;;;;;;;;;;;;;5074660;28;19986;-58
2022/01/25 02:05:07;;;;;;;;;;;;;;;;;;5074387;28;19932;-57
2022/01/25 02:07:33;;;;;;;;;;;;;;;;;;5073639;28;19928;-57
2022/01/25 02:09:59;;;;;;;;;;;;;;;;;;5074517;28;19925;-57
2022/01/25 02:12:25;;;;;;;;;;;;;;;;;;5074068;28;20300;-57
2022/01/25 02:14:52;;;;;;;;;;;;;;;;;;5073500;28;19928;-57
2022/01/25 02:17:40;;;;;;;;;;;;;;;;;;5074333;28;19924;-57
2022/01/25 02:22:49;;;;;;;;;;;;;;;;;;5073708;28;20050;-57
2022/01/25 02:25:15;;;;;;;;;;;;;;;;;;5073928;28;19928;-57
2022/01/25 02:27:41;;;;;;;;;;;;;;;;;;5073205;28;19978;-57
2022/01/25 02:30:07;;;;;;;;;;;;;;;;;;5074215;28;19970;-57
2022/01/25 02:32:34;;;;;;;;;;;;;;;;;;5082986;28;19925;-57
2022/01/25 02:35:02;;;;;;;;;;;;;;;;;;5093544;28;19932;-57
2022/01/25 02:37:28;;;;;;;;;;;;;;;;;;5093837;28;20569;-57
2022/01/25 02:39:54;;;;;;;;;;;;;;;;;;5094005;28;19924;-57
2022/01/25 02:42:20;;;;;;;;;;;;;;;;;;5093357;28;20432;-57
2022/01/25 02:44:47;;;;;;;;;;;;;;;;;;5093850;28;19936;-57
2022/01/25 02:49:57;;;;;;;;;;;;;;;;;;5093151;28;19942;-57
2022/01/25 02:52:23;;;;;;;;;;;;;;;;;;5093890;28;19970;-57
2022/01/25 02:54:49;;;;;;;;;;;;;;;;;;5094037;28;20268;-57
2022/01/25 02:57:15;;;;;;;;;;;;;;;;;;5093164;28;19924;-57
2022/01/25 02:59:41;;;;;;;;;;;;;;;;;;5091934;28;20393;-57
2022/01/25 03:02:07;;;;;;;;;;;;;;;;;;5073649;28;19929;-57
2022/01/25 03:04:33;;;;;;;;;;;;;;;;;;5072175;28;20328;-57
2022/01/25 03:07:00;;;;;;;;;;;;;;;;;;5073367;28;19970;-57
2022/01/25 03:09:26;;;;;;;;;;;;;;;;;;5072983;28;20543;-57
2022/01/25 03:11:54;;;;;;;;;;;;;;;;;;5072675;28;19932;-57
2022/01/25 03:14:22;;;;;;;;;;;;;;;;;;5073262;28;19940;-57
2022/01/25 03:17:04;;;;;;;;;;;;;;;;;;5072558;28;19928;-58
2022/01/25 03:19:45;;;;;;;;;;;;;;;;;;5072884;28;19931;-58
2022/01/25 03:22:16;;;;;;;;;;;;;;;;;;5073333;28;19946;-58
2022/01/25 03:24:42;;;;;;;;;;;;;;;;;;5072310;28;19924;-58
2022/01/25 03:27:08;;;;;;;;;;;;;;;;;;5072888;28;19925;-58
2022/01/25 03:29:34;;;;;;;;;;;;;;;;;;5072788;28;19924;-58
2022/01/25 03:32:00;;;;;;;;;;;;;;;;;;5076615;28;19969;-58
2022/01/25 03:34:27;;;;;;;;;;;;;;;;;;5092985;28;19977;-58
2022/01/25 03:36:53;;;;;;;;;;;;;;;;;;5093348;28;19925;-58
2022/01/25 03:39:19;;;;;;;;;;;;;;;;;;5092361;28;19924;-58
2022/01/25 03:41:45;;;;;;;;;;;;;;;;;;5092701;28;19928;-58
2022/01/25 03:44:11;;;;;;;;;;;;;;;;;;5093002;28;19958;-58
2022/01/25 03:46:42;;;;;;;;;;;;;;;;;;5091702;28;19935;-58
2022/01/25 03:51:52;;;;;;;;;;;;;;;;;;5092880;28;19919;-58
2022/01/25 03:54:18;;;;;;;;;;;;;;;;;;5091938;28;19924;-58
2022/01/25 03:56:44;;;;;;;;;;;;;;;;;;5092264;28;19928;-58
2022/01/25 03:59:10;;;;;;;;;;;;;;;;;;5091971;28;19969;-58
2022/01/25 04:01:36;;;;;;;;;;;;;;;;;;5074846;28;19929;-57
2022/01/25 04:04:06;;;;;;;;;;;;;;;;;;5072419;28;19924;-58
2022/01/25 04:06:33;;;;;;;;;;;;;;;;;;5071160;28;20003;-58
2022/01/25 04:08:59;;;;;;;;;;;;;;;;;;5072348;28;19924;-58
2022/01/25 04:11:26;;;;;;;;;;;;;;;;;;5071675;28;20390;-58
2022/01/25 04:13:53;;;;;;;;;;;;;;;;;;5071382;28;19928;-58
2022/01/25 04:16:23;;;;;;;;;;;;;;;;;;5071437;28;19924;-58
2022/01/25 04:19:00;;;;;;;;;;;;;;;;;;5072133;28;19931;-58
2022/01/25 04:21:44;;;;;;;;;;;;;;;;;;5070940;28;19968;-58
2022/01/25 04:26:54;;;;;;;;;;;;;;;;;;5072050;28;20315;-58
2022/01/25 04:29:20;;;;;;;;;;;;;;;;;;5071176;28;19925;-58
2022/01/25 04:31:46;;;;;;;;;;;;;;;;;;5073777;28;20367;-57
2022/01/25 04:34:25;;;;;;;;;;;;;;;;;;5091756;28;19969;-57
2022/01/25 04:48:49;;;;;;;;;;;;;;;;;;5092173;28;20017;-58
2022/01/25 04:50:56;;;;;;;;;;;;;;;;;;5090771;28;20289;-57
2022/01/25 04:53:32;;;;;;;;;;;;;;;;;;5092039;28;19924;-57
2022/01/25 04:56:05;;;;;;;;;;;;;;;;;;5091264;28;20286;-57
2022/01/25 04:58:38;;;;;;;;;;;;;;;;;;5091495;28;19925;-57
2022/01/25 05:01:05;;;;;;;;;;;;;;;;;;5078905;28;20345;-57
2022/01/25 05:03:48;;;;;;;;;;;;;;;;;;5070402;28;19924;-57
2022/01/25 05:06:16;;;;;;;;;;;;;;;;;;5071322;28;19971;-58
2022/01/25 05:08:46;;;;;;;;;;;;;;;;;;5071775;28;19924;-57
2022/01/25 05:11:21;;;;;;;;;;;;;;;;;;5070706;28;20397;-58
2022/01/25 05:13:53;;;;;;;;;;;;;;;;;;5071250;28;20031;-57
2022/01/25 05:16:28;;;;;;;;;;;;;;;;;;5071367;28;19924;-57
2022/01/25 05:19:03;;;;;;;;;;;;;;;;;;5071668;28;19967;-58
2022/01/25 05:24:13;;;;;;;;;;;;;;;;;;5070812;28;20031;-57
2022/01/25 05:26:39;;;;;;;;;;;;;;;;;;5071093;28;20371;-57
2022/01/25 05:29:05;;;;;;;;;;;;;;;;;;5075468;28;19924;-57
2022/01/25 05:31:31;;;;;;;;;;;;;;;;;;5074577;28;19970;-56
2022/01/25 05:33:57;;;;;;;;;;;;;;;;;;5095529;28;19967;-56
2022/01/25 05:36:24;;;;;;;;;;;;;;;;;;5095448;28;19928;-57
2022/01/25 05:38:50;;;;;;;;;;;;;;;;;;5094621;28;19924;-57
2022/01/25 05:41:16;;;;;;;;;;;;;;;;;;5095222;28;19985;-57
2022/01/25 05:44:21;;;;;;;;;;;;;;;;;;5095150;28;19924;-57
2022/01/25 05:46:52;;;;;;;;;;;;;;;;;;5094123;28;19931;-57
2022/01/25 05:49:18;;;;;;;;;;;;;;;;;;5095058;28;19931;-57
2022/01/25 05:51:45;;;;;;;;;;;;;;;;;;5094198;28;19928;-57
2022/01/25 05:54:11;;;;;;;;;;;;;;;;;;5095209;28;20023;-58
2022/01/25 05:56:37;;;;;;;;;;;;;;;;;;5094652;28;20451;-57
2022/01/25 05:59:03;;;;;;;;;;;;;;;;;;5094149;28;19928;-57
2022/01/25 06:01:29;;;;;;;;;;;;;;;;;;5078177;28;19925;-57
2022/01/25 06:03:55;;;;;;;;;;;;;;;;;;5074480;28;20543;-57
2022/01/25 06:06:21;;;;;;;;;;;;;;;;;;5074042;28;19978;-57
2022/01/25 06:08:48;;;;;;;;;;;;;;;;;;5074072;28;20379;-57
2022/01/25 06:11:14;;;;;;;;;;;;;;;;;;5074597;28;19928;-57
2022/01/25 06:13:40;;;;;;;;;;;;;;;;;;5073271;28;20413;-58
2022/01/25 06:16:06;;;;;;;;;;;;;;;;;;5074335;28;19924;-57
2022/01/25 06:18:32;;;;;;;;;;;;;;;;;;5073801;28;19924;-57
2022/01/25 06:20:58;;;;;;;;;;;;;;;;;;5073912;28;19925;-58
2022/01/25 06:23:24;;;;;;;;;;;;;;;;;;5074060;28;19978;-57
2022/01/25 06:25:50;;;;;;;;;;;;;;;;;;5074377;28;19986;-57
2022/01/25 06:28:17;;;;;;;;;;;;;;;;;;5073387;28;19931;-58
2022/01/25 06:30:44;;;;;;;;;;;;;;;;;;5073902;28;19925;-57
2022/01/25 06:33:10;;;;;;;;;;;;;;;;;;5088028;28;19984;-58
2022/01/25 06:35:36;;;;;;;;;;;;;;;;;;5093658;28;19924;-57
2022/01/25 06:38:02;;;;;;;;;;;;;;;;;;5094291;28;19978;-57
2022/01/25 06:40:28;;;;;;;;;;;;;;;;;;5093379;28;19928;-57
2022/01/25 06:42:54;;;;;;;;;;;;;;;;;;5093302;28;19928;-58
2022/01/25 06:45:23;;;;;;;;;;;;;;;;;;5094153;28;19924;-57
2022/01/25 06:47:49;;;;;;;;;;;;;;;;;;5093598;28;20264;-57
2022/01/25 06:50:15;;;;;;;;;;;;;;;;;;5093604;28;19978;-57
2022/01/25 06:52:42;;;;;;;;;;;;;;;;;;5093836;28;19924;-57
2022/01/25 06:55:08;;;;;;;;;;;;;;;;;;5093152;28;19924;-57
2022/01/25 06:57:34;;;;;;;;;;;;;;;;;;5093562;28;19928;-58
2022/01/25 07:00:00;;;;;;;;;;;;;;;;;;5089694;28;20264;-58
2022/01/25 07:02:27;;;;;;;;;;;;;;;;;;5072464;28;19928;-57
2022/01/25 07:04:53;;;;;;;;;;;;;;;;;;5073669;28;19924;-57
2022/01/25 07:07:19;;;;;;;;;;;;;;;;;;5073601;28;19928;-57
2022/01/25 07:09:45;;;;;;;;;;;;;;;;;;5072425;28;19974;-57
2022/01/25 07:12:11;;;;;;;;;;;;;;;;;;5073441;28;19928;-56
2022/01/25 07:14:37;;;;;;;;;;;;;;;;;;5073008;28;19970;-56
2022/01/25 07:17:03;;;;;;;;;;;;;;;;;;5072466;28;19986;-57
2022/01/25 07:19:29;;;;;;;;;;;;;;;;;;5072980;28;19925;-57
2022/01/25 07:21:55;;;;;;;;;;;;;;;;;;5073308;28;20375;-57
2022/01/25 07:24:21;;;;;;;;;;;;;;;;;;5072412;28;19978;-57
2022/01/25 07:26:48;;;;;;;;;;;;;;;;;;5072763;28;19932;-57
2022/01/25 07:29:15;;;;;;;;;;;;;;;;;;5072832;28;20401;-57
2022/01/25 07:31:41;;;;;;;;;;;;;;;;;;5073581;28;19928;-57
2022/01/25 07:34:07;;;;;;;;;;;;;;;;;;5093275;28;19977;-57
2022/01/25 07:36:34;;;;;;;;;;;;;;;;;;5092876;28;19970;-57
2022/01/25 07:39:00;;;;;;;;;;;;;;;;;;5092447;28;19970;-58
2022/01/25 07:41:26;;;;;;;;;;;;;;;;;;5092756;28;19924;-58
2022/01/25 07:43:53;;;;;;;;;;;;;;;;;;5092837;28;20449;-58
2022/01/25 07:46:19;;;;;;;;;;;;;;;;;;5092405;28;19946;-57
2022/01/25 07:48:45;;;;;;;;;;;;;;;;;;5092876;28;19924;-58
2022/01/25 07:51:11;;;;;;;;;;;;;;;;;;5091126;28;19924;-58
2022/01/25 07:53:38;;;;;;;;;;;;;;;;;;5091065;28;19924;-58
2022/01/25 07:56:04;;;;;;;;;;;;;;;;;;5070810;28;19932;-58
2022/01/25 07:58:30;;;;;;;;;;;;;;;;;;5071297;28;19962;-58
2022/01/25 08:00:56;;;;;;;;;;;;;;;;;;5072377;28;19970;-58
2022/01/25 08:03:22;;;;;;;;;;;;;;;;;;5072779;28;19978;-58
2022/01/25 08:05:50;;;;;;;;;;;;;;;;;;5071422;28;19982;-58
2022/01/25 08:08:16;;;;;;;;;;;;;;;;;;5072349;28;19931;-58
2022/01/25 08:10:42;;;;;;;;;;;;;;;;;;5071828;28;19925;-59
2022/01/25 08:13:08;;;;;;;;;;;;;;;;;;5071360;28;19932;-58
2022/01/25 08:15:34;;;;;;;;;;;;;;;;;;5072072;28;20002;-59
2022/01/25 08:18:00;;;;;;;;;;;;;;;;;;5072195;28;19925;-59
2022/01/25 08:20:26;;;;;;;;;;;;;;;;;;5071094;28;20077;-58
2022/01/25 08:22:53;;;;;;;;;;;;;;;;;;5072518;28;19928;-57
2022/01/25 08:25:19;;;;;;;;;;;;;;;;;;5071522;28;19974;-58
2022/01/25 08:27:45;;;;;;;;;;;;;;;;;;5070712;28;19960;-58
2022/01/25 08:30:11;;;;;;;;;;;;;;;;;;5073202;28;20429;-57
2022/01/25 08:32:37;;;;;;;;;;;;;;;;;;5082357;28;19925;-58
2022/01/25 08:35:03;;;;;;;;;;;;;;;;;;5070968;28;20337;-57
2022/01/25 08:37:29;;;;;;;;;;;;;;;;;;5071657;28;19929;-58
2022/01/25 08:39:55;;;;;;;;;;;;;;;;;;5071262;28;20341;-58
2022/01/25 08:42:22;;;;;;;;;;;;;;;;;;5070896;28;19925;-58
2022/01/25 08:44:48;;;;;;;;;;;;;;;;;;5071527;28;19928;-57
2022/01/25 08:47:14;;;;;;;;;;;;;;;;;;5071708;28;20437;-58
2022/01/25 08:49:40;;;;;;;;;;;;;;;;;;5070480;28;20041;-60
2022/01/25 08:52:06;;;;;;;;;;;;;;;;;;5071725;28;19924;-58
2022/01/25 08:54:32;;;;;;;;;;;;;;;;;;5070085;28;20437;-58
2022/01/25 08:56:58;;;;;;;;;;;;;;;;;;5071480;28;19978;-59
2022/01/25 08:59:24;;;;;;;;;;;;;;;;;;5071307;28;19928;-58
2022/01/25 09:01:50;;;;;;;;;;;;;;;;;;5089765;28;19928;-59
2022/01/25 09:04:16;;;;;;;;;;;;;;;;;;5091955;28;19924;-58
2022/01/25 09:06:42;;;;;;;;;;;;;;;;;;5091489;28;19973;-59
2022/01/25 09:09:09;;;;;;;;;;;;;;;;;;5090479;28;19924;-58
2022/01/25 09:11:35;;;;;;;;;;;;;;;;;;5091708;28;19978;-58
2022/01/25 09:14:01;;;;;;;;;;;;;;;;;;5091952;28;19928;-59
2022/01/25 09:16:27;;;;;;;;;;;;;;;;;;5090647;28;19928;-58
2022/01/25 09:18:53;;;;;;;;;;;;;;;;;;5091581;28;20431;-58
2022/01/25 09:21:19;;;;;;;;;;;;;;;;;;5091191;28;19969;-59
2022/01/25 09:23:45;;;;;;;;;;;;;;;;;;5090695;28;20366;-58
2022/01/25 09:26:11;;;;;;;;;;;;;;;;;;5091736;28;19939;-59
2022/01/25 09:28:37;;;;;;;;;;;;;;;;;;5091648;28;19969;-59
2022/01/25 09:31:03;;;;;;;;;;;;;;;;;;5090987;28;19969;-58
2022/01/25 09:33:29;;;;;;;;;;;;;;;;;;5074777;28;19932;-58
2022/01/25 09:35:55;;;;;;;;;;;;;;;;;;5071395;28;19978;-57
2022/01/25 09:38:22;;;;;;;;;;;;;;;;;;5070516;28;19978;-58
2022/01/25 09:40:48;;;;;;;;;;;;;;;;;;5070809;28;19928;-58
2022/01/25 09:43:14;;;;;;;;;;;;;;;;;;5071464;28;19928;-57
2022/01/25 09:45:40;;;;;;;;;;;;;;;;;;5070370;28;20041;-57
2022/01/25 09:48:06;;;;;;;;;;;;;;;;;;5071213;28;19967;-57
2022/01/25 09:50:32;;;;;;;;;;;;;;;;;;5070817;28;19924;-58
2022/01/25 09:53:00;;;;;;;;;;;;;;;;;;5070443;28;19978;-58
2022/01/25 09:55:26;;;;;;;;;;;;;;;;;;5070664;28;20527;-58
2022/01/25 09:57:52;;;;;;;;;;;;;;;;;;5070637;28;19968;-58
2022/01/25 10:00:19;;;;;;;;;;;;;;;;;;5077713;28;19993;-58
2022/01/25 10:02:49;;;;;;;;;;;;;;;;;;5091075;28;20268;-58
2022/01/25 10:05:15;;;;;;;;;;;;;;;;;;5090527;28;19924;-58
2022/01/25 10:07:41;;;;;;;;;;;;;;;;;;5090890;28;19931;-58
2022/01/25 10:10:07;;;;;;;;;;;;;;;;;;5091517;28;19977;-58
2022/01/25 10:12:33;;;;;;;;;;;;;;;;;;5090244;28;19924;-58
2022/01/25 10:14:59;;;;;;;;;;;;;;;;;;5093738;28;19924;-58
2022/01/25 10:17:25;;;;;;;;;;;;;;;;;;5094476;28;19985;-58
2022/01/25 10:19:51;;;;;;;;;;;;;;;;;;5094109;28;19977;-58
2022/01/25 10:22:17;;;;;;;;;;;;;;;;;;5094547;28;19924;-58
2022/01/25 10:24:43;;;;;;;;;;;;;;;;;;5094520;28;19924;-58
2022/01/25 10:27:10;;;;;;;;;;;;;;;;;;5093988;28;19928;-57
2022/01/25 10:29:36;;;;;;;;;;;;;;;;;;5094384;28;19924;-57
2022/01/25 10:32:02;;;;;;;;;;;;;;;;;;5089955;28;19924;-57
2022/01/25 10:34:28;;;;;;;;;;;;;;;;;;5073345;28;19925;-57
2022/01/25 10:36:54;;;;;;;;;;;;;;;;;;5074061;28;19931;-57
2022/01/25 10:39:20;;;;;;;;;;;;;;;;;;5074601;28;19925;-57
2022/01/25 10:41:46;;;;;;;;;;;;;;;;;;5073055;28;19924;-57
2022/01/25 10:44:13;;;;;;;;;;;;;;;;;;5074168;28;19928;-58
2022/01/25 10:46:39;;;;;;;;;;;;;;;;;;5073636;28;20337;-57
2022/01/25 10:49:05;;;;;;;;;;;;;;;;;;5073048;28;20411;-57
2022/01/25 10:51:31;;;;;;;;;;;;;;;;;;5073540;28;19925;-57
2022/01/25 10:53:57;;;;;;;;;;;;;;;;;;5073915;28;19925;-57
2022/01/25 10:56:24;;;;;;;;;;;;;;;;;;5073392;28;19970;-57
2022/01/25 10:58:50;;;;;;;;;;;;;;;;;;5073988;28;19977;-57
2022/01/25 11:01:16;;;;;;;;;;;;;;;;;;5087128;28;20515;-57
2022/01/25 11:03:42;;;;;;;;;;;;;;;;;;5093830;28;19924;-57
2022/01/25 11:06:08;;;;;;;;;;;;;;;;;;5093980;28;19924;-58
2022/01/25 11:08:34;;;;;;;;;;;;;;;;;;5092990;28;19993;-57
2022/01/25 11:11:02;;;;;;;;;;;;;;;;;;5094010;28;19969;-57
2022/01/25 11:13:37;;;;;;;;;;;;;;;;;;5093549;28;19947;-57
2022/01/25 11:16:04;;;;;;;;;;;;;;;;;;5093023;28;19930;-57
2022/01/25 11:18:31;;;;;;;;;;;;;;;;;;5093284;28;19928;-58
2022/01/25 11:20:57;;;;;;;;;;;;;;;;;;5093678;28;19924;-57
2022/01/25 11:23:23;;;;;;;;;;;;;;;;;;5092905;28;19924;-57
2022/01/25 11:25:49;;;;;;;;;;;;;;;;;;5093504;28;19924;-57
2022/01/25 11:28:15;;;;;;;;;;;;;;;;;;5093411;28;19924;-57
2022/01/25 11:30:41;;;;;;;;;;;;;;;;;;5092459;28;19928;-57
2022/01/25 11:33:07;;;;;;;;;;;;;;;;;;5079387;28;20433;-57
2022/01/25 11:35:34;;;;;;;;;;;;;;;;;;5073024;28;19932;-58
2022/01/25 11:38:00;;;;;;;;;;;;;;;;;;5072272;28;19925;-57
2022/01/25 11:40:26;;;;;;;;;;;;;;;;;;5072828;28;19924;-58
2022/01/25 11:42:52;;;;;;;;;;;;;;;;;;5072907;28;19970;-57
2022/01/25 11:45:18;;;;;;;;;;;;;;;;;;5072556;28;19924;-57
2022/01/25 11:47:44;;;;;;;;;;;;;;;;;;5072511;28;19981;-57
2022/01/25 11:50:11;;;;;;;;;;;;;;;;;;5072812;28;19932;-57
2022/01/25 11:52:37;;;;;;;;;;;;;;;;;;5071459;28;19977;-57
2022/01/25 11:55:03;;;;;;;;;;;;;;;;;;5072657;28;19924;-57
2022/01/25 11:57:29;;;;;;;;;;;;;;;;;;5071402;28;19954;-57
2022/01/25 11:59:55;;;;;;;;;;;;;;;;;;5075749;28;20337;-57
2022/01/25 12:02:21;;;;;;;;;;;;;;;;;;5092736;28;19932;-57
2022/01/25 12:04:47;;;;;;;;;;;;;;;;;;5091951;28;20284;-57
2022/01/25 12:07:22;;;;;;;;;;;;;;;;;;5092805;28;19928;-57
2022/01/25 12:09:52;;;;;;;;;;;;;;;;;;5092681;28;19924;-57
2022/01/25 12:12:18;;;;;;;;;;;;;;;;;;5091836;28;19932;-58
2022/01/25 12:14:45;;;;;;;;;;;;;;;;;;5092354;28;20065;-57
2022/01/25 12:17:11;;;;;;;;;;;;;;;;;;5092874;28;19967;-57
2022/01/25 12:19:37;;;;;;;;;;;;;;;;;;5091560;28;19960;-57
2022/01/25 12:22:04;;;;;;;;;;;;;;;;;;5092635;28;20263;-58
2022/01/25 12:24:33;;;;;;;;;;;;;;;;;;5092089;28;19957;-57
2022/01/25 12:27:02;;;;;;;;;;;;;;;;;;5091747;28;20022;-57
2022/01/25 12:29:28;;;;;;;;;;;;;;;;;;5091902;28;19924;-57
2022/01/25 12:31:54;;;;;;;;;;;;;;;;;;5089004;28;19924;-57
2022/01/25 12:34:20;;;;;;;;;;;;;;;;;;5071403;28;19970;-57
2022/01/25 12:36:47;;;;;;;;;;;;;;;;;;5071381;28;19928;-57
2022/01/25 12:39:13;;;;;;;;;;;;;;;;;;5071890;28;19928;-57
2022/01/25 12:41:39;;;;;;;;;;;;;;;;;;5070854;28;19994;-57
2022/01/25 12:44:06;;;;;;;;;;;;;;;;;;5071751;28;19924;-57
2022/01/25 12:46:33;;;;;;;;;;;;;;;;;;5071249;28;19975;-58
2022/01/25 12:48:59;;;;;;;;;;;;;;;;;;5071617;28;20035;-57
2022/01/25 12:51:25;;;;;;;;;;;;;;;;;;5071816;28;19978;-57
2022/01/25 12:53:51;;;;;;;;;;;;;;;;;;5070904;28;19970;-57
2022/01/25 12:56:17;;;;;;;;;;;;;;;;;;5071783;28;19928;-57
2022/01/25 12:58:43;;;;;;;;;;;;;;;;;;5071215;28;19928;-57
2022/01/25 13:01:09;;;;;;;;;;;;;;;;;;5084678;28;19970;-57
2022/01/25 13:03:35;;;;;;;;;;;;;;;;;;5091538;28;19928;-57
2022/01/25 13:06:01;;;;;;;;;;;;;;;;;;5091901;28;20367;-57
2022/01/25 13:08:27;;;;;;;;;;;;;;;;;;5090690;28;19928;-57
2022/01/25 13:10:56;;;;;;;;;;;;;;;;;;5092341;28;20355;-57
2022/01/25 13:13:31;;;;;;;;;;;;;;;;;;5091731;28;19928;-57
2022/01/25 13:15:57;;;;;;;;;;;;;;;;;;5091259;28;19938;-57
2022/01/25 13:18:23;;;;;;;;;;;;;;;;;;5091665;28;20370;-57
2022/01/25 13:20:50;;;;;;;;;;;;;;;;;;5091840;28;19924;-57
2022/01/25 13:23:16;;;;;;;;;;;;;;;;;;5091328;28;19924;-58
2022/01/25 13:25:54;;;;;;;;;;;;;;;;;;5091338;28;19931;-58
2022/01/25 13:28:36;;;;;;;;;;;;;;;;;;5091892;28;19924;-58
2022/01/25 13:31:02;;;;;;;;;;;;;;;;;;5091027;28;19962;-58
2022/01/25 13:33:29;;;;;;;;;;;;;;;;;;5074527;28;20379;-58
2022/01/25 13:35:56;;;;;;;;;;;;;;;;;;5070632;28;20283;-58
2022/01/25 13:38:22;;;;;;;;;;;;;;;;;;5071442;28;19925;-58
2022/01/25 13:40:51;;;;;;;;;;;;;;;;;;5071323;28;19978;-58
2022/01/25 13:43:33;;;;;;;;;;;;;;;;;;5070736;28;19931;-57
2022/01/25 13:45:59;;;;;;;;;;;;;;;;;;5071485;28;19947;-57
2022/01/25 13:48:26;;;;;;;;;;;;;;;;;;5070973;28;20367;-57
2022/01/25 13:50:52;;;;;;;;;;;;;;;;;;5074092;28;20147;-57
2022/01/25 13:53:18;;;;;;;;;;;;;;;;;;5075266;28;20329;-57
2022/01/25 13:55:44;;;;;;;;;;;;;;;;;;5074772;28;19928;-57
2022/01/25 13:58:11;;;;;;;;;;;;;;;;;;5074038;28;20325;-57
2022/01/25 14:00:37;;;;;;;;;;;;;;;;;;5083393;28;19928;-57
2022/01/25 14:03:03;;;;;;;;;;;;;;;;;;5095149;28;20437;-57
2022/01/25 14:05:30;;;;;;;;;;;;;;;;;;5093852;28;20400;-57
2022/01/25 14:07:56;;;;;;;;;;;;;;;;;;5095157;28;19924;-57
2022/01/25 14:10:24;;;;;;;;;;;;;;;;;;5094885;28;19950;-57
2022/01/25 14:23:46;;;;;;;;;;;;;;;;;;5094481;28;19919;-58
2022/01/25 14:26:12;;;;;;;;;;;;;;;;;;5093797;28;19924;-57
2022/01/25 14:28:41;;;;;;;;;;;;;;;;;;5094551;28;19978;-57
2022/01/25 14:31:07;;;;;;;;;;;;;;;;;;5094643;28;19924;-57
2022/01/25 14:33:33;;;;;;;;;;;;;;;;;;5076045;28;20371;-57
2022/01/25 14:36:00;;;;;;;;;;;;;;;;;;5074288;28;19931;-57
2022/01/25 14:38:26;;;;;;;;;;;;;;;;;;5073766;28;19932;-57
2022/01/25 14:40:52;;;;;;;;;;;;;;;;;;5073300;28;20330;-58
2022/01/25 14:43:18;;;;;;;;;;;;;;;;;;5074414;28;19924;-58
2022/01/25 14:45:44;;;;;;;;;;;;;;;;;;5073782;28;20440;-58
2022/01/25 14:48:10;;;;;;;;;;;;;;;;;;5073424;28;19936;-58
2022/01/25 14:50:36;;;;;;;;;;;;;;;;;;5073536;28;19932;-58
2022/01/25 14:53:03;;;;;;;;;;;;;;;;;;5073983;28;19928;-58
2022/01/25 14:55:29;;;;;;;;;;;;;;;;;;5072608;28;19924;-58
2022/01/25 14:58:04;;;;;;;;;;;;;;;;;;5074104;28;20061;-58
2022/01/25 15:00:30;;;;;;;;;;;;;;;;;;5080305;28;19962;-58
2022/01/25 15:02:57;;;;;;;;;;;;;;;;;;5094327;28;19928;-58
2022/01/25 15:05:23;;;;;;;;;;;;;;;;;;5094001;28;19978;-58
2022/01/25 15:07:49;;;;;;;;;;;;;;;;;;5092997;28;19924;-58
2022/01/25 15:10:19;;;;;;;;;;;;;;;;;;5093992;28;19953;-58
2022/01/25 15:12:48;;;;;;;;;;;;;;;;;;5093731;28;19924;-58
2022/01/25 15:15:17;;;;;;;;;;;;;;;;;;5093003;28;19931;-58
2022/01/25 15:17:43;;;;;;;;;;;;;;;;;;5093475;28;19932;-59
2022/01/25 15:20:09;;;;;;;;;;;;;;;;;;5093303;28;19924;-59
2022/01/25 15:22:35;;;;;;;;;;;;;;;;;;5092472;28;19924;-59
2022/01/25 15:25:01;;;;;;;;;;;;;;;;;;5093645;28;19924;-58
2022/01/25 15:27:29;;;;;;;;;;;;;;;;;;5093240;28;20317;-58
2022/01/25 15:29:55;;;;;;;;;;;;;;;;;;5092492;28;20453;-58
2022/01/25 15:32:21;;;;;;;;;;;;;;;;;;5086192;28;19924;-58
2022/01/25 15:34:47;;;;;;;;;;;;;;;;;;5072846;28;20441;-58
2022/01/25 15:37:14;;;;;;;;;;;;;;;;;;5072555;28;20019;-58
2022/01/25 15:39:40;;;;;;;;;;;;;;;;;;5072892;28;19924;-58
2022/01/25 15:42:07;;;;;;;;;;;;;;;;;;5073092;28;19924;-58
2022/01/25 15:44:38;;;;;;;;;;;;;;;;;;5072188;28;19924;-58
2022/01/25 15:47:07;;;;;;;;;;;;;;;;;;5072936;28;19979;-58
2022/01/25 15:49:33;;;;;;;;;;;;;;;;;;5071630;28;19932;-58
2022/01/25 15:51:59;;;;;;;;;;;;;;;;;;5072815;28;19962;-58
2022/01/25 15:54:25;;;;;;;;;;;;;;;;;;5072553;28;19932;-59
2022/01/25 15:56:51;;;;;;;;;;;;;;;;;;5071955;28;19970;-58
2022/01/25 15:59:19;;;;;;;;;;;;;;;;;;5072684;28;19928;-58
2022/01/25 16:01:48;;;;;;;;;;;;;;;;;;5090609;28;19959;-58
2022/01/25 16:04:14;;;;;;;;;;;;;;;;;;5092090;28;20013;-59
2022/01/25 16:06:40;;;;;;;;;;;;;;;;;;5092359;28;19928;-59
2022/01/25 16:09:07;;;;;;;;;;;;;;;;;;5092631;28;19924;-58
2022/01/25 16:11:33;;;;;;;;;;;;;;;;;;5086660;28;20264;-59
2022/01/25 16:13:59;;;;;;;;;;;;;;;;;;5092279;28;19950;-58
2022/01/25 16:16:25;;;;;;;;;;;;;;;;;;5091718;28;20395;-58
2022/01/25 16:18:51;;;;;;;;;;;;;;;;;;5091362;28;19924;-58
2022/01/25 16:21:18;;;;;;;;;;;;;;;;;;5092045;28;20329;-58
2022/01/25 16:23:44;;;;;;;;;;;;;;;;;;5087656;28;19954;-58
2022/01/25 16:26:13;;;;;;;;;;;;;;;;;;5079678;28;19924;-57
2022/01/25 16:28:39;;;;;;;;;;;;;;;;;;5089414;28;19924;-58
2022/01/25 16:31:06;;;;;;;;;;;;;;;;;;5091784;28;19981;-58
2022/01/25 16:33:32;;;;;;;;;;;;;;;;;;5073672;28;19924;-58
2022/01/25 16:35:58;;;;;;;;;;;;;;;;;;5071795;28;19924;-58
2022/01/25 16:38:24;;;;;;;;;;;;;;;;;;5071213;28;19970;-58
2022/01/25 16:40:51;;;;;;;;;;;;;;;;;;5070301;28;19924;-59
2022/01/25 16:43:17;;;;;;;;;;;;;;;;;;5071669;28;19978;-58
2022/01/25 16:45:43;;;;;;;;;;;;;;;;;;5070545;28;19931;-58
2022/01/25 16:48:09;;;;;;;;;;;;;;;;;;5071510;28;20371;-58
2022/01/25 16:50:39;;;;;;;;;;;;;;;;;;5070986;28;19932;-58
2022/01/25 16:53:06;;;;;;;;;;;;;;;;;;5070732;28;19976;-58
2022/01/25 16:55:32;;;;;;;;;;;;;;;;;;5070938;28;20285;-58
2022/01/25 16:57:58;;;;;;;;;;;;;;;;;;5071353;28;19942;-58
2022/01/25 17:00:24;;;;;;;;;;;;;;;;;;5077172;28;19924;-58
2022/01/25 17:02:50;;;;;;;;;;;;;;;;;;5091750;28;19923;-60
2022/01/25 17:05:16;;;;;;;;;;;;;;;;;;5091639;28;19928;-58
2022/01/25 17:07:42;;;;;;;;;;;;;;;;;;5090035;28;20350;-58
2022/01/25 17:10:08;;;;;;;;;;;;;;;;;;5091702;28;20264;-59
2022/01/25 17:12:35;;;;;;;;;;;;;;;;;;5091174;28;19928;-58
2022/01/25 17:15:01;;;;;;;;;;;;;;;;;;5090899;28;19928;-58
2022/01/25 17:17:27;;;;;;;;;;;;;;;;;;5076769;28;19951;-57
2022/01/25 17:19:54;;;;;;;;;;;;;;;;;;5071453;28;19924;-57
2022/01/25 17:22:20;;;;;;;;;;;;;;;;;;5078894;28;19947;-57
2022/01/25 17:24:46;;;;;;;;;;;;;;;;;;5095387;28;19953;-57
2022/01/25 17:27:12;;;;;;;;;;;;;;;;;;5095572;28;19924;-57
2022/01/25 17:29:38;;;;;;;;;;;;;;;;;;5094790;28;19969;-57
2022/01/25 17:32:04;;;;;;;;;;;;;;;;;;5090735;28;19928;-57
2022/01/25 17:34:30;;;;;;;;;;;;;;;;;;5075116;28;19990;-57
2022/01/25 17:36:58;;;;;;;;;;;;;;;;;;5074417;28;20337;-57
2022/01/25 17:39:24;;;;;;;;;;;;;;;;;;5074763;28;19924;-58
2022/01/25 17:41:50;;;;;;;;;;;;;;;;;;5074876;28;20421;-58
2022/01/25 17:44:16;;;;;;;;;;;;;;;;;;5074328;28;19933;-58
2022/01/25 17:46:42;;;;;;;;;;;;;;;;;;5074490;28;20425;-58
2022/01/25 17:49:09;;;;;;;;;;;;;;;;;;5073841;28;19978;-58
2022/01/25 17:51:35;;;;;;;;;;;;;;;;;;5074534;28;19924;-58
2022/01/25 17:54:01;;;;;;;;;;;;;;;;;;5074903;28;19970;-58
2022/01/25 17:56:27;;;;;;;;;;;;;;;;;;5073581;28;19978;-58
2022/01/25 17:58:53;;;;;;;;;;;;;;;;;;5074834;28;19932;-59
2022/01/25 18:01:19;;;;;;;;;;;;;;;;;;5089573;28;19931;-58
2022/01/25 18:03:46;;;;;;;;;;;;;;;;;;5093782;28;19932;-59
2022/01/25 18:06:12;;;;;;;;;;;;;;;;;;5094911;28;19924;-56
2022/01/25 18:08:39;;;;;;;;;;;;;;;;;;5094322;28;19978;-58